createdAt,value
2022-12-11T00:09:30.035Z,99346.67
2022-12-11T00:19:34.766Z,99339.50
2022-12-11T00:29:38.443Z,99337.36
2022-12-11T00:39:42.131Z,99330.54
2022-12-11T00:49:49.779Z,99315.84
2022-12-11T00:59:54.450Z,99314.38
2022-12-11T01:10:17.624Z,99301.44
2022-12-11T01:20:25.381Z,99306.64
2022-12-11T01:30:30.863Z,99306.02
2022-12-11T01:40:34.534Z,99305.45
2022-12-11T01:50:49.414Z,99304.94
2022-12-11T02:00:54.309Z,99307.59
2022-12-11T02:11:11.841Z,99306.55
2022-12-11T02:21:28.756Z,99289.42
2022-12-11T02:31:42.732Z,99292.95
2022-12-11T02:41:51.674Z,99280.81
2022-12-11T02:51:57.133Z,99273.44
2022-12-11T03:02:01.479Z,99270.20
2022-12-11T03:12:07.133Z,99266.61
2022-12-11T03:22:15.893Z,99260.45
2022-12-11T03:32:24.784Z,99255.65
2022-12-11T03:42:29.487Z,99242.83
2022-12-11T03:52:33.803Z,99225.10
2022-12-11T04:02:37.487Z,99216.52
2022-12-11T04:12:41.224Z,99217.40
2022-12-11T04:23:03.603Z,99227.16
2022-12-11T04:33:07.324Z,99234.31
2022-12-11T04:43:10.887Z,99233.80
2022-12-11T04:53:14.774Z,99230.89
2022-12-11T05:03:18.765Z,99223.02
2022-12-11T05:13:22.518Z,99214.52
2022-12-11T05:23:26.868Z,99210.21
2022-12-11T05:33:31.071Z,99217.70
2022-12-11T05:43:37.169Z,99222.17
2022-12-11T05:53:42.051Z,99226.34
2022-12-11T06:03:46.088Z,99224.80
2022-12-11T06:13:50.727Z,99224.47
2022-12-11T06:23:58.770Z,99221.53
2022-12-11T06:34:02.563Z,99220.23
2022-12-11T06:44:06.243Z,99217.64
2022-12-11T06:54:09.897Z,99210.30
2022-12-11T07:04:13.781Z,99200.02
2022-12-11T07:14:17.522Z,99189.44
2022-12-11T07:24:21.185Z,99188.77
2022-12-11T07:34:24.994Z,99176.84
2022-12-11T07:44:29.244Z,99176.98
2022-12-11T07:54:33.350Z,99179.23
2022-12-11T08:04:37.148Z,99194.70
2022-12-11T08:14:40.909Z,99197.64
2022-12-11T08:24:48.019Z,99193.13
2022-12-11T08:34:56.785Z,99193.49
2022-12-11T08:45:01.732Z,99189.29
2022-12-11T08:55:06.195Z,99179.51
2022-12-11T09:05:10.592Z,99159.27
2022-12-11T09:15:14.656Z,99134.30
2022-12-11T09:25:18.262Z,99131.52
2022-12-11T09:35:22.110Z,99124.51
2022-12-11T09:45:26.220Z,99117.10
2022-12-11T09:55:44.006Z,99109.35
2022-12-11T10:06:02.637Z,99093.86
2022-12-11T10:16:14.885Z,99086.82
2022-12-11T10:26:21.506Z,99076.08
2022-12-11T10:36:37.613Z,99051.61
2022-12-11T10:46:41.680Z,99047.35
2022-12-11T10:56:48.605Z,99017.70
2022-12-11T11:07:13.837Z,98995.77
2022-12-11T11:17:18.037Z,98988.96
2022-12-11T11:27:39.796Z,98978.87
2022-12-11T11:37:53.663Z,98965.70
2022-12-11T11:48:27.638Z,98948.77
2022-12-11T11:58:42.038Z,98942.14
2022-12-11T12:08:49.064Z,98933.69
2022-12-11T12:19:07.233Z,98920.96
2022-12-11T12:29:45.220Z,98909.84
2022-12-11T12:39:54.954Z,98893.71
2022-12-11T12:50:00.421Z,98879.91
2022-12-11T13:00:12.566Z,98873.56
2022-12-11T13:10:28.498Z,98865.39
2022-12-11T13:20:34.683Z,98868.34
2022-12-11T13:30:38.790Z,98865.96
2022-12-11T13:40:44.571Z,98857.58
2022-12-11T13:50:50.402Z,98844.32
2022-12-11T14:01:21.720Z,98846.36
2022-12-11T14:11:30.196Z,98834.67
2022-12-11T14:21:35.191Z,98816.73
2022-12-11T14:31:44.492Z,98809.84
2022-12-11T14:42:13.635Z,98802.08
2022-12-11T14:52:29.631Z,98779.16
2022-12-11T15:02:36.512Z,98771.91
2022-12-11T15:12:45.544Z,98745.41
2022-12-11T15:22:49.769Z,98739.91
2022-12-11T15:33:12.043Z,98730.83
2022-12-11T15:43:15.849Z,98739.65
2022-12-11T15:53:19.877Z,98734.52
2022-12-11T16:03:24.566Z,98736.17
2022-12-11T16:13:28.678Z,98719.43
2022-12-11T16:23:32.538Z,98702.98
2022-12-11T16:33:36.221Z,98699.08
2022-12-11T16:43:41.020Z,98700.14
2022-12-11T16:53:44.768Z,98705.77
2022-12-11T17:03:48.763Z,98690.64
2022-12-11T17:13:58.053Z,98686.05
2022-12-11T17:24:01.901Z,98677.61
2022-12-11T17:34:06.574Z,98660.91
2022-12-11T17:44:10.536Z,98645.41
2022-12-11T17:54:14.323Z,98648.76
2022-12-11T18:04:18.204Z,98653.42
2022-12-11T18:14:22.725Z,98648.05
2022-12-11T18:24:31.976Z,98635.81
2022-12-11T18:34:35.958Z,98622.96
2022-12-11T18:44:39.912Z,98625.89
2022-12-11T18:54:49.530Z,98629.90
2022-12-11T19:04:53.345Z,98626.13
2022-12-11T19:14:57.153Z,98618.08
2022-12-11T19:25:01.475Z,98620.86
2022-12-11T19:35:10.100Z,98611.41
2022-12-11T19:45:23.604Z,98611.58
2022-12-11T19:55:27.351Z,98609.98
2022-12-11T20:05:32.567Z,98592.29
2022-12-11T20:15:39.224Z,98565.77
2022-12-11T20:25:43.250Z,98547.98
2022-12-11T20:35:47.258Z,98547.56
2022-12-11T20:45:51.515Z,98548.01
2022-12-11T20:55:56.143Z,98541.27
2022-12-11T21:05:59.959Z,98520.97
2022-12-11T21:16:06.565Z,98520.34
2022-12-11T21:26:10.572Z,98514.59
2022-12-11T21:36:15.669Z,98519.80
2022-12-11T21:46:23.006Z,98501.11
2022-12-11T21:56:29.060Z,98490.32
2022-12-11T22:06:33.804Z,98481.03
2022-12-11T22:16:37.679Z,98478.38
2022-12-11T22:26:41.397Z,98467.66
2022-12-11T22:36:45.030Z,98457.42
2022-12-11T22:46:50.845Z,98451.55
2022-12-11T22:56:54.799Z,98444.60
2022-12-11T23:06:58.852Z,98443.54
2022-12-11T23:17:02.520Z,98443.10
2022-12-11T23:27:06.475Z,98442.02
2022-12-11T23:37:10.519Z,98433.45
2022-12-11T23:47:14.149Z,98438.02
2022-12-11T23:57:17.794Z,98433.56
